Stallovarre — LHBG — position and weather

sailwx.info

Track history (hours):
 
Tides and Currents Weather Stations Pressure Air Temp Water Temp Dewpoint Dewpoint Depression Visibility Wind Speed Wind Dir Waves Ship Positions

Stallovarre

Last reported at 2016-Jun-26 18:30 UTC. Time now 2016-Jun-26 19:06 UTC.
Position N 59°15' E 006°08'.

Length 54 m; draft 5 m.

MMSI: 257374400.

Date/timePositionNaut miles runAvg speedWind from/ knotsBaromVisibWave heightAir tempDewpointWater temp
2016-Jun-26 18:30N 59°15' E 006°08'1 1.3
2016-Jun-26 17:28N 59°16' E 006°10'0 0.3
2016-Jun-26 16:05N 59°15' E 006°09'0 0.8
2016-Jun-26 15:32N 59°16' E 006°10'0 0.1
2016-Jun-26 14:29N 59°16' E 006°10'1 1.5
2016-Jun-26 13:33N 59°14' E 006°09'1 1.3
2016-Jun-26 12:32N 59°16' E 006°10'0 0.0
2016-Jun-26 11:31N 59°16' E 006°10'0 0.1
2016-Jun-26 10:32N 59°16' E 006°10'0 0.4
2016-Jun-26 09:33N 59°15' E 006°10'0 0.2
2016-Jun-26 08:32N 59°15' E 006°10'0 0.1
2016-Jun-26 07:32N 59°16' E 006°10'0 0.4
2016-Jun-26 06:33N 59°15' E 006°10'1 0.1
2016-Jun-25 21:04N 59°14' E 006°10'2 2.6
2016-Jun-25 20:26N 59°16' E 006°10'1 0.7
2016-Jun-25 19:33N 59°15' E 006°10'1 0.4
2016-Jun-25 18:05N 59°15' E 006°09'1 1.0
2016-Jun-25 17:31N 59°16' E 006°10'0 0.1
2016-Jun-25 15:28N 59°16' E 006°10'0 0.1
2016-Jun-25 14:33N 59°16' E 006°10'2 1.4
2016-Jun-25 13:25N 59°15' E 006°07'2 1.8
2016-Jun-25 12:32N 59°15' E 006°10'0 0.2
2016-Jun-25 11:33N 59°15' E 006°10'0 0.5
2016-Jun-25 10:29N 59°16' E 006°10'0 0.5
2016-Jun-25 09:33N 59°15' E 006°10'0 0.1
2016-Jun-25 08:33N 59°15' E 006°10'0 0.3
2016-Jun-25 07:33N 59°16' E 006°10'0 0.1
2016-Jun-25 06:31N 59°16' E 006°10'1 0.7
2016-Jun-25 04:28N 59°15' E 006°08'1 0.1
2016-Jun-24 19:32N 59°16' E 006°10'2 1.4
2016-Jun-24 18:24N 59°15' E 006°07'2 1.7
2016-Jun-24 17:31N 59°16' E 006°10'2 1.6
2016-Jun-24 16:22N 59°15' E 006°06'2 2.2
2016-Jun-24 15:33N 59°15' E 006°10'0 0.2
2016-Jun-24 14:33N 59°16' E 006°10'0 0.3
2016-Jun-24 13:05N 59°15' E 006°09'1 1.1
2016-Jun-24 12:33N 59°15' E 006°10'0 0.3
2016-Jun-24 11:32N 59°15' E 006°10'0 0.3
2016-Jun-24 10:30N 59°16' E 006°10'0 0.1
2016-Jun-24 09:32N 59°16' E 006°10'0 0.2
2016-Jun-24 08:33N 59°15' E 006°10'0 0.2
2016-Jun-24 07:33N 59°16' E 006°09'1 0.4
2016-Jun-24 04:33N 59°15' E 006°08'1 0.6
2016-Jun-24 03:33N 59°15' E 006°07'1 0.2
2016-Jun-23 19:32N 59°15' E 006°10'0 0.2
2016-Jun-23 17:32N 59°16' E 006°10'2 1.5
2016-Jun-23 16:23N 59°15' E 006°06'2 2.0
2016-Jun-23 15:33N 59°15' E 006°10'0 0.3
2016-Jun-23 14:32N 59°16' E 006°10'1 1.3
2016-Jun-23 13:32N 59°14' E 006°09'1 1.2
2016-Jun-23 12:28N 59°16' E 006°10'0 0.1
2016-Jun-23 11:33N 59°16' E 006°10'0 0.1
2016-Jun-23 10:32N 59°16' E 006°10'0 0.1
2016-Jun-23 09:32N 59°16' E 006°10'0 0.1
2016-Jun-23 08:32N 59°16' E 006°10'0 0.1
2016-Jun-23 07:33N 59°16' E 006°09'1 0.6
2016-Jun-23 05:33N 59°14' E 006°09'1 0.6
2016-Jun-23 03:27N 59°15' E 006°07'2 0.2
2016-Jun-22 20:15N 59°14' E 006°10'1 1.7
2016-Jun-22 19:33N 59°15' E 006°10'1 1.0
2016-Jun-22 18:31N 59°15' E 006°08'1 1.3
2016-Jun-22 17:27N 59°16' E 006°10'0 0.2
2016-Jun-22 16:04N 59°16' E 006°09'0 0.3
2016-Jun-22 15:31N 59°16' E 006°10'0 0.2
2016-Jun-22 14:33N 59°16' E 006°09'1 1.0
2016-Jun-22 13:31N 59°14' E 006°09'1 1.3
2016-Jun-22 12:32N 59°16' E 006°10'0 0.3
2016-Jun-22 11:33N 59°15' E 006°10'0 0.3
2016-Jun-22 10:33N 59°16' E 006°10'0 0.0
2016-Jun-22 09:32N 59°16' E 006°10'0 0.1
2016-Jun-22 08:33N 59°15' E 006°10'0 0.1
2016-Jun-22 07:33N 59°16' E 006°10'0 0.0
2016-Jun-22 06:32N 59°16' E 006°10'1 1.3
2016-Jun-22 05:32N 59°14' E 006°09'1 0.7
2016-Jun-22 04:30N 59°15' E 006°08'1 1.0
2016-Jun-22 03:29N 59°15' E 006°06'2 0.4
2016-Jun-21 21:33N 59°14' E 006°10'0 0.0
2016-Jun-21 20:33N 59°14' E 006°10'1 1.2
2016-Jun-21 19:33N 59°15' E 006°10'1 0.9
2016-Jun-21 18:30N 59°15' E 006°09'1 0.8
2016-Jun-21 17:23N 59°15' E 006°10'0 0.2
2016-Jun-21 15:32N 59°16' E 006°10'0 0.1
2016-Jun-21 14:27N 59°16' E 006°10'1 1.4
2016-Jun-21 13:30N 59°15' E 006°08'1 1.1
2016-Jun-21 12:33N 59°15' E 006°10'0 0.3
2016-Jun-21 11:25N 59°16' E 006°10'0 0.1
2016-Jun-21 10:29N 59°16' E 006°10'0 0.0
2016-Jun-21 09:30N 59°16' E 006°10'0 0.1
2016-Jun-21 08:31N 59°16' E 006°10'0 0.0
2016-Jun-21 07:33N 59°16' E 006°10'0 0.4
2016-Jun-21 06:33N 59°15' E 006°10'1 0.5
2016-Jun-21 04:30N 59°15' E 006°08'1 0.2
2016-Jun-20 19:30N 59°16' E 006°10'1 1.3
2016-Jun-20 18:29N 59°15' E 006°08'1 1.2
2016-Jun-20 17:31N 59°16' E 006°10'0 0.1
2016-Jun-20 15:32N 59°16' E 006°10'0 0.2
2016-Jun-20 14:34N 59°16' E 006°09'0 0.1
2016-Jun-20 12:33N 59°16' E 006°10'0 0.1
2016-Jun-20 11:29N 59°16' E 006°10'0 0.1
2016-Jun-20 10:31N 59°16' E 006°10'0 0.1
2016-Jun-20 09:30N 59°16' E 006°10'0 0.1
2016-Jun-20 08:32N 59°16' E 006°10'0 0.1
2016-Jun-20 07:30N 59°16' E 006°10'0 0.2
2016-Jun-20 06:32N 59°16' E 006°10'1 1.2
2016-Jun-20 05:27N 59°15' E 006°08'0 0.3
2016-Jun-20 04:26N 59°15' E 006°07'1 0.9
2016-Jun-20 03:30N 59°15' E 006°06'2 0.3
2016-Jun-19 19:31N 59°16' E 006°10'1 1.2
2016-Jun-19 18:29N 59°15' E 006°08'1 1.4
2016-Jun-19 17:33N 59°16' E 006°10'2 1.6
2016-Jun-19 16:22N 59°15' E 006°06'2 2.2
2016-Jun-19 15:32N 59°16' E 006°10'0 0.1
2016-Jun-19 14:33N 59°16' E 006°10'1 1.2
2016-Jun-19 13:33N 59°14' E 006°09'1 1.2
2016-Jun-19 12:30N 59°16' E 006°10'0 0.0
2016-Jun-19 11:33N 59°16' E 006°10'0 0.1
2016-Jun-19 10:27N 59°16' E 006°10'0 0.1
2016-Jun-19 09:33N 59°16' E 006°10'0 0.1
2016-Jun-19 08:32N 59°16' E 006°10'0 0.0
2016-Jun-19 07:33N 59°16' E 006°10'0 0.2
2016-Jun-19 06:32N 59°15' E 006°10'0 0.0
2016-Jun-18 19:32N 59°15' E 006°10'1 1.1
2016-Jun-18 18:31N 59°14' E 006°08'1 1.3
2016-Jun-18 17:29N 59°16' E 006°10'0 0.2
2016-Jun-18 16:05N 59°15' E 006°09'0 0.2
2016-Jun-18 14:32N 59°16' E 006°10'1 1.3
2016-Jun-18 13:29N 59°15' E 006°08'1 1.2
2016-Jun-18 12:33N 59°15' E 006°10'0 0.2
2016-Jun-18 11:32N 59°16' E 006°10'0 0.1
2016-Jun-18 10:33N 59°16' E 006°09'0 0.1
2016-Jun-18 09:31N 59°16' E 006°10'0 0.1
2016-Jun-18 08:30N 59°16' E 006°10'0 0.1
2016-Jun-18 07:33N 59°16' E 006°10'0 0.3
2016-Jun-18 06:33N 59°15' E 006°10'1 1.2
2016-Jun-18 05:26N 59°15' E 006°07'2 0.2
2016-Jun-17 22:19N 59°14' E 006°10'1 0.5
2016-Jun-17 19:33N 59°15' E 006°10'1 1.1
2016-Jun-17 18:31N 59°15' E 006°09'1 1.3
2016-Jun-17 17:30N 59°16' E 006°10'1 1.3
2016-Jun-17 16:27N 59°15' E 006°08'1 1.4
2016-Jun-17 15:29N 59°16' E 006°10'0 0.0
2016-Jun-17 14:31N 59°16' E 006°10'1 1.3
2016-Jun-17 13:27N 59°15' E 006°08'1 1.5
2016-Jun-17 12:31N 59°16' E 006°10'0 0.1
2016-Jun-17 11:33N 59°16' E 006°10'0 0.1
2016-Jun-17 10:33N 59°16' E 006°10'0 0.1
2016-Jun-17 09:33N 59°15' E 006°10'0 0.1
2016-Jun-17 08:33N 59°16' E 006°10'0 0.1
2016-Jun-17 07:33N 59°15' E 006°09'0 0.1
2016-Jun-17 06:32N 59°16' E 006°10'1 1.2
2016-Jun-17 05:30N 59°15' E 006°08'1 0.5
2016-Jun-17 04:27N 59°15' E 006°07'1 1.0
2016-Jun-17 03:30N 59°15' E 006°06'2 0.3
2016-Jun-16 19:32N 59°16' E 006°10'  
Track history (hours):
 
Tides and Currents Weather Stations Pressure Air Temp Water Temp Dewpoint Dewpoint Depression Visibility Wind Speed Wind Dir Waves Ship Positions

Stallovarre

Last reported at 2016-Jun-26 18:30 UTC. Time now 2016-Jun-26 19:06 UTC.
Position N 59°15' E 006°08'.

Length 54 m; draft 5 m.

MMSI: 257374400.

Date/timePositionNaut miles runAvg speedWind from/ knotsBaromVisibWave heightAir tempDewpointWater temp
2016-Jun-26 18:30N 59°15' E 006°08'1 1.3
2016-Jun-26 17:28N 59°16' E 006°10'0 0.3
2016-Jun-26 16:05N 59°15' E 006°09'0 0.8
2016-Jun-26 15:32N 59°16' E 006°10'0 0.1
2016-Jun-26 14:29N 59°16' E 006°10'1 1.5
2016-Jun-26 13:33N 59°14' E 006°09'1 1.3
2016-Jun-26 12:32N 59°16' E 006°10'0 0.0
2016-Jun-26 11:31N 59°16' E 006°10'0 0.1
2016-Jun-26 10:32N 59°16' E 006°10'0 0.4
2016-Jun-26 09:33N 59°15' E 006°10'0 0.2
2016-Jun-26 08:32N 59°15' E 006°10'0 0.1
2016-Jun-26 07:32N 59°16' E 006°10'0 0.4
2016-Jun-26 06:33N 59°15' E 006°10'1 0.1
2016-Jun-25 21:04N 59°14' E 006°10'2 2.6
2016-Jun-25 20:26N 59°16' E 006°10'1 0.7
2016-Jun-25 19:33N 59°15' E 006°10'1 0.4
2016-Jun-25 18:05N 59°15' E 006°09'1 1.0
2016-Jun-25 17:31N 59°16' E 006°10'0 0.1
2016-Jun-25 15:28N 59°16' E 006°10'0 0.1
2016-Jun-25 14:33N 59°16' E 006°10'2 1.4
2016-Jun-25 13:25N 59°15' E 006°07'2 1.8
2016-Jun-25 12:32N 59°15' E 006°10'0 0.2
2016-Jun-25 11:33N 59°15' E 006°10'0 0.5
2016-Jun-25 10:29N 59°16' E 006°10'0 0.5
2016-Jun-25 09:33N 59°15' E 006°10'0 0.1
2016-Jun-25 08:33N 59°15' E 006°10'0 0.3
2016-Jun-25 07:33N 59°16' E 006°10'0 0.1
2016-Jun-25 06:31N 59°16' E 006°10'1 0.7
2016-Jun-25 04:28N 59°15' E 006°08'1 0.1
2016-Jun-24 19:32N 59°16' E 006°10'2 1.4
2016-Jun-24 18:24N 59°15' E 006°07'2 1.7
2016-Jun-24 17:31N 59°16' E 006°10'2 1.6
2016-Jun-24 16:22N 59°15' E 006°06'2 2.2
2016-Jun-24 15:33N 59°15' E 006°10'0 0.2
2016-Jun-24 14:33N 59°16' E 006°10'0 0.3
2016-Jun-24 13:05N 59°15' E 006°09'1 1.1
2016-Jun-24 12:33N 59°15' E 006°10'0 0.3
2016-Jun-24 11:32N 59°15' E 006°10'0 0.3
2016-Jun-24 10:30N 59°16' E 006°10'0 0.1
2016-Jun-24 09:32N 59°16' E 006°10'0 0.2
2016-Jun-24 08:33N 59°15' E 006°10'0 0.2
2016-Jun-24 07:33N 59°16' E 006°09'1 0.4
2016-Jun-24 04:33N 59°15' E 006°08'1 0.6
2016-Jun-24 03:33N 59°15' E 006°07'1 0.2
2016-Jun-23 19:32N 59°15' E 006°10'0 0.2
2016-Jun-23 17:32N 59°16' E 006°10'2 1.5
2016-Jun-23 16:23N 59°15' E 006°06'2 2.0
2016-Jun-23 15:33N 59°15' E 006°10'0 0.3
2016-Jun-23 14:32N 59°16' E 006°10'1 1.3
2016-Jun-23 13:32N 59°14' E 006°09'1 1.2
2016-Jun-23 12:28N 59°16' E 006°10'0 0.1
2016-Jun-23 11:33N 59°16' E 006°10'0 0.1
2016-Jun-23 10:32N 59°16' E 006°10'0 0.1
2016-Jun-23 09:32N 59°16' E 006°10'0 0.1
2016-Jun-23 08:32N 59°16' E 006°10'0 0.1
2016-Jun-23 07:33N 59°16' E 006°09'1 0.6
2016-Jun-23 05:33N 59°14' E 006°09'1 0.6
2016-Jun-23 03:27N 59°15' E 006°07'2 0.2
2016-Jun-22 20:15N 59°14' E 006°10'1 1.7
2016-Jun-22 19:33N 59°15' E 006°10'1 1.0
2016-Jun-22 18:31N 59°15' E 006°08'1 1.3
2016-Jun-22 17:27N 59°16' E 006°10'0 0.2
2016-Jun-22 16:04N 59°16' E 006°09'0 0.3
2016-Jun-22 15:31N 59°16' E 006°10'0 0.2
2016-Jun-22 14:33N 59°16' E 006°09'1 1.0
2016-Jun-22 13:31N 59°14' E 006°09'1 1.3
2016-Jun-22 12:32N 59°16' E 006°10'0 0.3
2016-Jun-22 11:33N 59°15' E 006°10'0 0.3
2016-Jun-22 10:33N 59°16' E 006°10'0 0.0
2016-Jun-22 09:32N 59°16' E 006°10'0 0.1
2016-Jun-22 08:33N 59°15' E 006°10'0 0.1
2016-Jun-22 07:33N 59°16' E 006°10'0 0.0
2016-Jun-22 06:32N 59°16' E 006°10'1 1.3
2016-Jun-22 05:32N 59°14' E 006°09'1 0.7
2016-Jun-22 04:30N 59°15' E 006°08'1 1.0
2016-Jun-22 03:29N 59°15' E 006°06'2 0.4
2016-Jun-21 21:33N 59°14' E 006°10'0 0.0
2016-Jun-21 20:33N 59°14' E 006°10'1 1.2
2016-Jun-21 19:33N 59°15' E 006°10'1 0.9
2016-Jun-21 18:30N 59°15' E 006°09'1 0.8
2016-Jun-21 17:23N 59°15' E 006°10'0 0.2
2016-Jun-21 15:32N 59°16' E 006°10'0 0.1
2016-Jun-21 14:27N 59°16' E 006°10'1 1.4
2016-Jun-21 13:30N 59°15' E 006°08'1 1.1
2016-Jun-21 12:33N 59°15' E 006°10'0 0.3
2016-Jun-21 11:25N 59°16' E 006°10'0 0.1
2016-Jun-21 10:29N 59°16' E 006°10'0 0.0
2016-Jun-21 09:30N 59°16' E 006°10'0 0.1
2016-Jun-21 08:31N 59°16' E 006°10'0 0.0
2016-Jun-21 07:33N 59°16' E 006°10'0 0.4
2016-Jun-21 06:33N 59°15' E 006°10'1 0.5
2016-Jun-21 04:30N 59°15' E 006°08'1 0.2
2016-Jun-20 19:30N 59°16' E 006°10'1 1.3
2016-Jun-20 18:29N 59°15' E 006°08'1 1.2
2016-Jun-20 17:31N 59°16' E 006°10'0 0.1
2016-Jun-20 15:32N 59°16' E 006°10'0 0.2
2016-Jun-20 14:34N 59°16' E 006°09'0 0.1
2016-Jun-20 12:33N 59°16' E 006°10'0 0.1
2016-Jun-20 11:29N 59°16' E 006°10'0 0.1
2016-Jun-20 10:31N 59°16' E 006°10'0 0.1
2016-Jun-20 09:30N 59°16' E 006°10'0 0.1
2016-Jun-20 08:32N 59°16' E 006°10'0 0.1
2016-Jun-20 07:30N 59°16' E 006°10'0 0.2
2016-Jun-20 06:32N 59°16' E 006°10'1 1.2
2016-Jun-20 05:27N 59°15' E 006°08'0 0.3
2016-Jun-20 04:26N 59°15' E 006°07'1 0.9
2016-Jun-20 03:30N 59°15' E 006°06'2 0.3
2016-Jun-19 19:31N 59°16' E 006°10'1 1.2
2016-Jun-19 18:29N 59°15' E 006°08'1 1.4
2016-Jun-19 17:33N 59°16' E 006°10'2 1.6
2016-Jun-19 16:22N 59°15' E 006°06'2 2.2
2016-Jun-19 15:32N 59°16' E 006°10'0 0.1
2016-Jun-19 14:33N 59°16' E 006°10'1 1.2
2016-Jun-19 13:33N 59°14' E 006°09'1 1.2
2016-Jun-19 12:30N 59°16' E 006°10'0 0.0
2016-Jun-19 11:33N 59°16' E 006°10'0 0.1
2016-Jun-19 10:27N 59°16' E 006°10'0 0.1
2016-Jun-19 09:33N 59°16' E 006°10'0 0.1
2016-Jun-19 08:32N 59°16' E 006°10'0 0.0
2016-Jun-19 07:33N 59°16' E 006°10'0 0.2
2016-Jun-19 06:32N 59°15' E 006°10'0 0.0
2016-Jun-18 19:32N 59°15' E 006°10'1 1.1
2016-Jun-18 18:31N 59°14' E 006°08'1 1.3
2016-Jun-18 17:29N 59°16' E 006°10'0 0.2
2016-Jun-18 16:05N 59°15' E 006°09'0 0.2
2016-Jun-18 14:32N 59°16' E 006°10'1 1.3
2016-Jun-18 13:29N 59°15' E 006°08'1 1.2
2016-Jun-18 12:33N 59°15' E 006°10'0 0.2
2016-Jun-18 11:32N 59°16' E 006°10'0 0.1
2016-Jun-18 10:33N 59°16' E 006°09'0 0.1
2016-Jun-18 09:31N 59°16' E 006°10'0 0.1
2016-Jun-18 08:30N 59°16' E 006°10'0 0.1
2016-Jun-18 07:33N 59°16' E 006°10'0 0.3
2016-Jun-18 06:33N 59°15' E 006°10'1 1.2
2016-Jun-18 05:26N 59°15' E 006°07'2 0.2
2016-Jun-17 22:19N 59°14' E 006°10'1 0.5
2016-Jun-17 19:33N 59°15' E 006°10'1 1.1
2016-Jun-17 18:31N 59°15' E 006°09'1 1.3
2016-Jun-17 17:30N 59°16' E 006°10'1 1.3
2016-Jun-17 16:27N 59°15' E 006°08'1 1.4
2016-Jun-17 15:29N 59°16' E 006°10'0 0.0
2016-Jun-17 14:31N 59°16' E 006°10'1 1.3
2016-Jun-17 13:27N 59°15' E 006°08'1 1.5
2016-Jun-17 12:31N 59°16' E 006°10'0 0.1
2016-Jun-17 11:33N 59°16' E 006°10'0 0.1
2016-Jun-17 10:33N 59°16' E 006°10'0 0.1
2016-Jun-17 09:33N 59°15' E 006°10'0 0.1
2016-Jun-17 08:33N 59°16' E 006°10'0 0.1
2016-Jun-17 07:33N 59°15' E 006°09'0 0.1
2016-Jun-17 06:32N 59°16' E 006°10'1 1.2
2016-Jun-17 05:30N 59°15' E 006°08'1 0.5
2016-Jun-17 04:27N 59°15' E 006°07'1 1.0
2016-Jun-17 03:30N 59°15' E 006°06'2 0.3
2016-Jun-16 19:32N 59°16' E 006°10'  

Dump ship's entire track history